sensor_id;sensor_type;location;lat;lon;timestamp;temperature;humidity
51579;DHT22;47998;53.242;6.386;2023-06-01T00:00:38;10.90;3.70
51579;DHT22;47998;53.242;6.386;2023-06-01T00:03:04;11.00;43.60
51579;DHT22;47998;53.242;6.386;2023-06-01T00:05:30;10.90;24.60
51579;DHT22;47998;53.242;6.386;2023-06-01T00:07:56;10.90;48.20
51579;DHT22;47998;53.242;6.386;2023-06-01T00:10:21;11.00;24.90
51579;DHT22;47998;53.242;6.386;2023-06-01T00:12:47;10.90;62.70
51579;DHT22;47998;53.242;6.386;2023-06-01T00:15:13;11.00;65.10
51579;DHT22;47998;53.242;6.386;2023-06-01T00:17:38;10.90;96.70
51579;DHT22;47998;53.242;6.386;2023-06-01T00:20:05;10.90;65.30
51579;DHT22;47998;53.242;6.386;2023-06-01T00:22:34;10.80;44.10
51579;DHT22;47998;53.242;6.386;2023-06-01T00:25:06;10.80;24.60
51579;DHT22;47998;53.242;6.386;2023-06-01T00:27:32;10.80;6.70
51579;DHT22;47998;53.242;6.386;2023-06-01T00:29:58;10.80;65.60
51579;DHT22;47998;53.242;6.386;2023-06-01T00:32:23;10.80;55.80
51579;DHT22;47998;53.242;6.386;2023-06-01T00:34:49;10.80;4.90
51579;DHT22;47998;53.242;6.386;2023-06-01T00:37:15;10.90;40.70
51579;DHT22;47998;53.242;6.386;2023-06-01T00:39:40;10.80;51.10
51579;DHT22;47998;53.242;6.386;2023-06-01T00:42:06;10.80;70.90
51579;DHT22;47998;53.242;6.386;2023-06-01T00:44:32;10.80;93.90
51579;DHT22;47998;53.242;6.386;2023-06-01T00:46:58;10.80;64.70
51579;DHT22;47998;53.242;6.386;2023-06-01T00:49:25;10.80;48.40
51579;DHT22;47998;53.242;6.386;2023-06-01T00:51:52;10.80;90.60
51579;DHT22;47998;53.242;6.386;2023-06-01T00:54:18;10.80;63.70
51579;DHT22;47998;53.242;6.386;2023-06-01T00:56:45;10.80;99.90
51579;DHT22;47998;53.242;6.386;2023-06-01T00:59:12;10.80;99.90
51579;DHT22;47998;53.242;6.386;2023-06-01T01:01:37;10.80;92.60
51579;DHT22;47998;53.242;6.386;2023-06-01T01:04:03;10.70;73.60
51579;DHT22;47998;53.242;6.386;2023-06-01T01:11:29;10.70;92.00
51579;DHT22;47998;53.242;6.386;2023-06-01T01:14:05;10.70;64.10
51579;DHT22;47998;53.242;6.386;2023-06-01T01:19:34;10.70;96.70
51579;DHT22;47998;53.242;6.386;2023-06-01T01:22:25;10.60;85.50
51579;DHT22;47998;53.242;6.386;2023-06-01T01:30:03;10.60;27.30
51579;DHT22;47998;53.242;6.386;2023-06-01T01:32:33;10.50;39.10
51579;DHT22;47998;53.242;6.386;2023-06-01T01:35:01;10.60;35.90
51579;DHT22;47998;53.242;6.386;2023-06-01T01:37:27;10.50;57.30
51579;DHT22;47998;53.242;6.386;2023-06-01T01:39:53;10.50;99.90
51579;DHT22;47998;53.242;6.386;2023-06-01T01:42:18;10.60;97.60
51579;DHT22;47998;53.242;6.386;2023-06-01T01:44:45;10.60;99.90
51579;DHT22;47998;53.242;6.386;2023-06-01T01:47:27;10.60;99.90
51579;DHT22;47998;53.242;6.386;2023-06-01T01:50:00;10.60;99.90
51579;DHT22;47998;53.242;6.386;2023-06-01T01:52:39;10.60;99.90
51579;DHT22;47998;53.242;6.386;2023-06-01T01:55:08;10.60;99.90
51579;DHT22;47998;53.242;6.386;2023-06-01T01:57:35;10.60;99.90
51579;DHT22;47998;53.242;6.386;2023-06-01T02:00:07;10.70;94.10
51579;DHT22;47998;53.242;6.386;2023-06-01T02:02:33;10.60;99.90
51579;DHT22;47998;53.242;6.386;2023-06-01T02:04:58;10.60;70.90
51579;DHT22;47998;53.242;6.386;2023-06-01T02:07:24;10.60;68.10
51579;DHT22;47998;53.242;6.386;2023-06-01T02:09:50;10.60;91.00
51579;DHT22;47998;53.242;6.386;2023-06-01T02:12:16;10.60;95.90
51579;DHT22;47998;53.242;6.386;2023-06-01T02:14:41;10.60;75.30
51579;DHT22;47998;53.242;6.386;2023-06-01T02:17:07;10.50;98.50
51579;DHT22;47998;53.242;6.386;2023-06-01T02:19:33;10.60;99.90
51579;DHT22;47998;53.242;6.386;2023-06-01T02:21:59;10.60;81.30
51579;DHT22;47998;53.242;6.386;2023-06-01T02:24:25;10.60;91.10
51579;DHT22;47998;53.242;6.386;2023-06-01T02:26:51;10.60;88.80
51579;DHT22;47998;53.242;6.386;2023-06-01T02:29:21;10.60;72.60
51579;DHT22;47998;53.242;6.386;2023-06-01T02:31:51;10.70;72.40
51579;DHT22;47998;53.242;6.386;2023-06-01T02:34:18;10.60;74.80
51579;DHT22;47998;53.242;6.386;2023-06-01T02:36:44;10.70;92.70
51579;DHT22;47998;53.242;6.386;2023-06-01T02:39:10;10.60;99.90
51579;DHT22;47998;53.242;6.386;2023-06-01T02:41:36;10.70;99.90
51579;DHT22;47998;53.242;6.386;2023-06-01T02:44:01;10.70;99.90
51579;DHT22;47998;53.242;6.386;2023-06-01T02:46:28;10.60;99.80
51579;DHT22;47998;53.242;6.386;2023-06-01T02:48:53;10.60;99.90
51579;DHT22;47998;53.242;6.386;2023-06-01T02:51:19;10.60;99.90
51579;DHT22;47998;53.242;6.386;2023-06-01T02:53:45;10.60;99.90
51579;DHT22;47998;53.242;6.386;2023-06-01T02:56:14;10.60;86.10
51579;DHT22;47998;53.242;6.386;2023-06-01T02:58:40;10.60;39.30
51579;DHT22;47998;53.242;6.386;2023-06-01T03:01:08;10.70;26.10
51579;DHT22;47998;53.242;6.386;2023-06-01T03:03:37;10.60;14.60
51579;DHT22;47998;53.242;6.386;2023-06-01T03:06:04;10.70;33.40
51579;DHT22;47998;53.242;6.386;2023-06-01T03:08:31;10.70;65.60
51579;DHT22;47998;53.242;6.386;2023-06-01T03:10:57;10.60;39.80
51579;DHT22;47998;53.242;6.386;2023-06-01T03:13:23;10.60;41.70
51579;DHT22;47998;53.242;6.386;2023-06-01T03:15:49;10.60;44.60
51579;DHT22;47998;53.242;6.386;2023-06-01T03:18:16;10.60;44.10
51579;DHT22;47998;53.242;6.386;2023-06-01T03:20:42;10.60;41.80
51579;DHT22;47998;53.242;6.386;2023-06-01T03:23:07;10.60;51.90
51579;DHT22;47998;53.242;6.386;2023-06-01T03:25:33;10.60;59.30
51579;DHT22;47998;53.242;6.386;2023-06-01T03:27:59;10.60;36.90
51579;DHT22;47998;53.242;6.386;2023-06-01T03:30:25;10.70;36.80
51579;DHT22;47998;53.242;6.386;2023-06-01T03:32:51;10.70;54.10
51579;DHT22;47998;53.242;6.386;2023-06-01T03:35:17;10.70;76.20
51579;DHT22;47998;53.242;6.386;2023-06-01T03:37:44;10.70;96.60
51579;DHT22;47998;53.242;6.386;2023-06-01T03:40:11;10.70;71.20
51579;DHT22;47998;53.242;6.386;2023-06-01T03:42:41;10.70;79.80
51579;DHT22;47998;53.242;6.386;2023-06-01T03:45:08;10.70;99.90
51579;DHT22;47998;53.242;6.386;2023-06-01T03:47:34;10.60;99.90
51579;DHT22;47998;53.242;6.386;2023-06-01T03:50:01;10.70;99.90
51579;DHT22;47998;53.242;6.386;2023-06-01T03:52:28;10.70;99.30
51579;DHT22;47998;53.242;6.386;2023-06-01T03:54:58;10.70;92.00
51579;DHT22;47998;53.242;6.386;2023-06-01T03:57:24;10.80;94.10
51579;DHT22;47998;53.242;6.386;2023-06-01T03:59:50;10.80;93.60
51579;DHT22;47998;53.242;6.386;2023-06-01T04:02:17;10.90;99.90
51579;DHT22;47998;53.242;6.386;2023-06-01T04:04:45;10.80;99.90
51579;DHT22;47998;53.242;6.386;2023-06-01T04:07:11;10.70;99.90
51579;DHT22;47998;53.242;6.386;2023-06-01T04:09:41;10.80;99.90
51579;DHT22;47998;53.242;6.386;2023-06-01T04:12:06;10.80;91.50
51579;DHT22;47998;53.242;6.386;2023-06-01T04:14:32;10.70;91.10
51579;DHT22;47998;53.242;6.386;2023-06-01T04:16:58;10.70;94.90
51579;DHT22;47998;53.242;6.386;2023-06-01T04:19:24;10.80;94.30
51579;DHT22;47998;53.242;6.386;2023-06-01T04:21:50;10.70;93.30
51579;DHT22;47998;53.242;6.386;2023-06-01T04:24:16;10.70;97.50
51579;DHT22;47998;53.242;6.386;2023-06-01T04:26:41;10.70;92.30
51579;DHT22;47998;53.242;6.386;2023-06-01T04:29:07;10.70;96.60
51579;DHT22;47998;53.242;6.386;2023-06-01T04:31:37;10.80;91.30
51579;DHT22;47998;53.242;6.386;2023-06-01T04:34:03;10.70;99.90
51579;DHT22;47998;53.242;6.386;2023-06-01T04:36:34;10.70;99.90
51579;DHT22;47998;53.242;6.386;2023-06-01T04:39:06;10.80;99.90
51579;DHT22;47998;53.242;6.386;2023-06-01T04:41:33;10.90;99.90
51579;DHT22;47998;53.242;6.386;2023-06-01T04:44:01;10.80;99.90
51579;DHT22;47998;53.242;6.386;2023-06-01T04:46:31;10.80;91.90
51579;DHT22;47998;53.242;6.386;2023-06-01T04:48:57;10.90;97.10
51579;DHT22;47998;53.242;6.386;2023-06-01T04:51:24;10.90;99.90
51579;DHT22;47998;53.242;6.386;2023-06-01T04:53:52;10.90;99.90
51579;DHT22;47998;53.242;6.386;2023-06-01T04:56:18;10.90;99.90
51579;DHT22;47998;53.242;6.386;2023-06-01T04:58:47;11.00;99.90
51579;DHT22;47998;53.242;6.386;2023-06-01T05:01:14;11.00;99.90
51579;DHT22;47998;53.242;6.386;2023-06-01T05:03:44;11.00;99.90
51579;DHT22;47998;53.242;6.386;2023-06-01T05:06:13;11.00;99.90
51579;DHT22;47998;53.242;6.386;2023-06-01T05:08:39;11.00;99.90
51579;DHT22;47998;53.242;6.386;2023-06-01T05:11:06;11.00;99.90
51579;DHT22;47998;53.242;6.386;2023-06-01T05:13:37;11.00;99.90
51579;DHT22;47998;53.242;6.386;2023-06-01T05:16:08;11.00;99.90
51579;DHT22;47998;53.242;6.386;2023-06-01T05:18:34;11.00;99.90
51579;DHT22;47998;53.242;6.386;2023-06-01T05:21:01;11.00;99.90
51579;DHT22;47998;53.242;6.386;2023-06-01T05:23:27;10.90;99.90
51579;DHT22;47998;53.242;6.386;2023-06-01T05:25:53;11.00;99.90
51579;DHT22;47998;53.242;6.386;2023-06-01T05:28:25;11.00;99.90
51579;DHT22;47998;53.242;6.386;2023-06-01T05:30:50;11.00;99.90
51579;DHT22;47998;53.242;6.386;2023-06-01T05:33:16;11.00;99.90
51579;DHT22;47998;53.242;6.386;2023-06-01T05:35:42;11.00;99.90
51579;DHT22;47998;53.242;6.386;2023-06-01T05:38:08;11.10;99.90
51579;DHT22;47998;53.242;6.386;2023-06-01T05:40:33;11.10;99.90
51579;DHT22;47998;53.242;6.386;2023-06-01T05:43:01;11.20;99.90
51579;DHT22;47998;53.242;6.386;2023-06-01T05:45:27;11.20;99.90
51579;DHT22;47998;53.242;6.386;2023-06-01T05:47:52;11.30;99.90
51579;DHT22;47998;53.242;6.386;2023-06-01T05:50:19;11.30;99.90
51579;DHT22;47998;53.242;6.386;2023-06-01T05:52:45;11.30;99.90
51579;DHT22;47998;53.242;6.386;2023-06-01T05:55:10;11.30;99.90
51579;DHT22;47998;53.242;6.386;2023-06-01T05:57:36;11.40;99.90
51579;DHT22;47998;53.242;6.386;2023-06-01T06:00:02;11.50;99.90
51579;DHT22;47998;53.242;6.386;2023-06-01T06:02:33;11.50;99.90
51579;DHT22;47998;53.242;6.386;2023-06-01T06:04:59;11.50;99.90
51579;DHT22;47998;53.242;6.386;2023-06-01T06:07:24;11.50;99.90
51579;DHT22;47998;53.242;6.386;2023-06-01T06:09:50;11.60;99.90
51579;DHT22;47998;53.242;6.386;2023-06-01T06:12:16;11.60;99.90
51579;DHT22;47998;53.242;6.386;2023-06-01T06:14:42;11.60;99.90
51579;DHT22;47998;53.242;6.386;2023-06-01T06:17:07;11.50;99.90
51579;DHT22;47998;53.242;6.386;2023-06-01T06:19:33;11.60;99.90
51579;DHT22;47998;53.242;6.386;2023-06-01T06:21:59;11.40;99.90
51579;DHT22;47998;53.242;6.386;2023-06-01T06:24:25;11.40;99.90
51579;DHT22;47998;53.242;6.386;2023-06-01T06:26:51;11.40;99.90
51579;DHT22;47998;53.242;6.386;2023-06-01T06:29:16;11.40;99.90
51579;DHT22;47998;53.242;6.386;2023-06-01T06:31:42;11.40;99.90
51579;DHT22;47998;53.242;6.386;2023-06-01T06:34:08;11.50;99.90
51579;DHT22;47998;53.242;6.386;2023-06-01T06:36:34;11.60;99.90
51579;DHT22;47998;53.242;6.386;2023-06-01T06:39:00;11.80;99.90
51579;DHT22;47998;53.242;6.386;2023-06-01T06:41:26;11.70;99.90
51579;DHT22;47998;53.242;6.386;2023-06-01T06:43:51;11.90;99.90
51579;DHT22;47998;53.242;6.386;2023-06-01T06:46:17;11.70;99.90
51579;DHT22;47998;53.242;6.386;2023-06-01T06:48:43;11.60;99.90
51579;DHT22;47998;53.242;6.386;2023-06-01T06:51:08;11.60;99.90
51579;DHT22;47998;53.242;6.386;2023-06-01T06:53:34;11.50;99.90
51579;DHT22;47998;53.242;6.386;2023-06-01T06:56:00;11.40;99.90
51579;DHT22;47998;53.242;6.386;2023-06-01T06:58:26;11.40;99.90
51579;DHT22;47998;53.242;6.386;2023-06-01T07:00:52;11.40;99.90
51579;DHT22;47998;53.242;6.386;2023-06-01T07:03:19;11.50;99.90
51579;DHT22;47998;53.242;6.386;2023-06-01T07:05:45;11.60;99.90
51579;DHT22;47998;53.242;6.386;2023-06-01T07:08:11;11.70;99.90
51579;DHT22;47998;53.242;6.386;2023-06-01T07:10:36;11.70;99.90
51579;DHT22;47998;53.242;6.386;2023-06-01T07:13:02;11.60;99.90
51579;DHT22;47998;53.242;6.386;2023-06-01T07:15:28;11.60;99.90
51579;DHT22;47998;53.242;6.386;2023-06-01T07:17:54;11.60;99.90
51579;DHT22;47998;53.242;6.386;2023-06-01T07:20:19;11.60;99.90
51579;DHT22;47998;53.242;6.386;2023-06-01T07:22:45;11.70;99.90
51579;DHT22;47998;53.242;6.386;2023-06-01T07:25:11;11.60;99.90
51579;DHT22;47998;53.242;6.386;2023-06-01T07:27:39;11.60;99.90
51579;DHT22;47998;53.242;6.386;2023-06-01T07:30:09;11.70;99.90
51579;DHT22;47998;53.242;6.386;2023-06-01T07:32:36;11.70;99.90
51579;DHT22;47998;53.242;6.386;2023-06-01T07:35:02;11.60;99.90
51579;DHT22;47998;53.242;6.386;2023-06-01T07:37:30;11.80;99.90
51579;DHT22;47998;53.242;6.386;2023-06-01T07:39:57;11.90;99.90
51579;DHT22;47998;53.242;6.386;2023-06-01T07:42:23;11.80;99.90
51579;DHT22;47998;53.242;6.386;2023-06-01T07:44:49;11.80;99.90
51579;DHT22;47998;53.242;6.386;2023-06-01T07:47:16;12.00;99.90
51579;DHT22;47998;53.242;6.386;2023-06-01T07:49:41;12.10;99.90
51579;DHT22;47998;53.242;6.386;2023-06-01T07:52:07;11.90;99.90
51579;DHT22;47998;53.242;6.386;2023-06-01T07:54:34;12.00;99.90
51579;DHT22;47998;53.242;6.386;2023-06-01T07:57:04;12.00;99.90
51579;DHT22;47998;53.242;6.386;2023-06-01T07:59:31;12.10;99.90
51579;DHT22;47998;53.242;6.386;2023-06-01T08:01:57;11.90;99.90
51579;DHT22;47998;53.242;6.386;2023-06-01T08:04:24;11.90;99.90
51579;DHT22;47998;53.242;6.386;2023-06-01T08:06:50;11.80;99.90
51579;DHT22;47998;53.242;6.386;2023-06-01T08:09:20;11.70;99.90
51579;DHT22;47998;53.242;6.386;2023-06-01T08:11:48;11.60;99.90
51579;DHT22;47998;53.242;6.386;2023-06-01T08:14:13;11.60;99.90
51579;DHT22;47998;53.242;6.386;2023-06-01T08:16:39;11.50;99.90
51579;DHT22;47998;53.242;6.386;2023-06-01T08:19:05;11.40;99.90
51579;DHT22;47998;53.242;6.386;2023-06-01T08:21:31;11.40;99.90
51579;DHT22;47998;53.242;6.386;2023-06-01T08:23:57;11.40;99.90
51579;DHT22;47998;53.242;6.386;2023-06-01T08:26:23;11.30;99.90
51579;DHT22;47998;53.242;6.386;2023-06-01T08:28:49;11.40;99.90
51579;DHT22;47998;53.242;6.386;2023-06-01T08:31:23;11.40;99.90
51579;DHT22;47998;53.242;6.386;2023-06-01T08:33:50;11.40;99.90
51579;DHT22;47998;53.242;6.386;2023-06-01T08:36:17;11.50;99.90
51579;DHT22;47998;53.242;6.386;2023-06-01T08:38:43;11.60;99.90
51579;DHT22;47998;53.242;6.386;2023-06-01T08:41:36;11.70;99.90
51579;DHT22;47998;53.242;6.386;2023-06-01T08:44:08;11.70;99.90
51579;DHT22;47998;53.242;6.386;2023-06-01T08:46:35;11.80;99.90
51579;DHT22;47998;53.242;6.386;2023-06-01T08:49:01;12.10;99.90
51579;DHT22;47998;53.242;6.386;2023-06-01T08:51:28;12.30;99.90
51579;DHT22;47998;53.242;6.386;2023-06-01T08:53:57;12.40;1.00
51579;DHT22;47998;53.242;6.386;2023-06-01T08:56:27;12.40;1.00
51579;DHT22;47998;53.242;6.386;2023-06-01T08:58:54;12.50;1.00
51579;DHT22;47998;53.242;6.386;2023-06-01T09:01:20;12.50;1.00
51579;DHT22;47998;53.242;6.386;2023-06-01T09:03:49;12.50;1.00
51579;DHT22;47998;53.242;6.386;2023-06-01T09:06:16;12.60;1.00
51579;DHT22;47998;53.242;6.386;2023-06-01T09:08:42;12.80;1.00
51579;DHT22;47998;53.242;6.386;2023-06-01T09:11:08;12.90;1.00
51579;DHT22;47998;53.242;6.386;2023-06-01T09:13:38;12.80;99.90
51579;DHT22;47998;53.242;6.386;2023-06-01T09:16:05;12.90;99.90
51579;DHT22;47998;53.242;6.386;2023-06-01T09:18:31;12.90;99.90
51579;DHT22;47998;53.242;6.386;2023-06-01T09:21:11;12.90;99.90
51579;DHT22;47998;53.242;6.386;2023-06-01T09:23:36;12.80;99.90
51579;DHT22;47998;53.242;6.386;2023-06-01T09:26:13;12.90;1.00
51579;DHT22;47998;53.242;6.386;2023-06-01T09:31:38;12.90;99.90
51579;DHT22;47998;53.242;6.386;2023-06-01T09:34:05;12.90;99.90
51579;DHT22;47998;53.242;6.386;2023-06-01T09:36:31;12.80;99.90
51579;DHT22;47998;53.242;6.386;2023-06-01T09:39:06;12.90;99.90
51579;DHT22;47998;53.242;6.386;2023-06-01T09:44:11;13.00;95.10
51579;DHT22;47998;53.242;6.386;2023-06-01T09:47:06;13.30;99.90
51579;DHT22;47998;53.242;6.386;2023-06-01T09:49:42;13.50;1.00
51579;DHT22;47998;53.242;6.386;2023-06-01T09:52:09;13.60;1.00
51579;DHT22;47998;53.242;6.386;2023-06-01T09:57:06;13.60;1.00
51579;DHT22;47998;53.242;6.386;2023-06-01T09:59:45;13.60;1.00
51579;DHT22;47998;53.242;6.386;2023-06-01T10:02:17;13.50;99.90
51579;DHT22;47998;53.242;6.386;2023-06-01T10:04:54;13.70;1.00
51579;DHT22;47998;53.242;6.386;2023-06-01T10:07:27;13.70;99.90
51579;DHT22;47998;53.242;6.386;2023-06-01T10:09:55;13.70;99.90
51579;DHT22;47998;53.242;6.386;2023-06-01T10:12:21;13.80;99.90
51579;DHT22;47998;53.242;6.386;2023-06-01T10:14:48;13.60;99.90
51579;DHT22;47998;53.242;6.386;2023-06-01T10:17:15;13.60;99.90
51579;DHT22;47998;53.242;6.386;2023-06-01T10:19:42;13.50;99.90
51579;DHT22;47998;53.242;6.386;2023-06-01T10:22:09;13.50;1.00
51579;DHT22;47998;53.242;6.386;2023-06-01T10:24:36;13.60;1.00
51579;DHT22;47998;53.242;6.386;2023-06-01T10:27:26;13.60;1.00
51579;DHT22;47998;53.242;6.386;2023-06-01T10:29:53;13.60;1.00
51579;DHT22;47998;53.242;6.386;2023-06-01T10:32:41;13.70;1.00
51579;DHT22;47998;53.242;6.386;2023-06-01T10:35:08;13.40;1.00
51579;DHT22;47998;53.242;6.386;2023-06-01T10:37:36;13.40;1.00
51579;DHT22;47998;53.242;6.386;2023-06-01T10:40:20;13.30;1.00
51579;DHT22;47998;53.242;6.386;2023-06-01T10:42:50;13.30;1.00
51579;DHT22;47998;53.242;6.386;2023-06-01T10:45:45;13.40;1.00
51579;DHT22;47998;53.242;6.386;2023-06-01T10:48:12;13.70;1.00
51579;DHT22;47998;53.242;6.386;2023-06-01T10:50:39;13.80;1.00
51579;DHT22;47998;53.242;6.386;2023-06-01T10:53:25;14.00;99.90
51579;DHT22;47998;53.242;6.386;2023-06-01T10:56:17;13.90;99.90
51579;DHT22;47998;53.242;6.386;2023-06-01T10:58:43;14.10;99.90
51579;DHT22;47998;53.242;6.386;2023-06-01T11:01:10;14.10;99.90
51579;DHT22;47998;53.242;6.386;2023-06-01T11:03:46;13.80;99.90
51579;DHT22;47998;53.242;6.386;2023-06-01T11:06:29;14.00;99.90
51579;DHT22;47998;53.242;6.386;2023-06-01T11:08:58;14.30;1.90
51579;DHT22;47998;53.242;6.386;2023-06-01T11:14:24;14.50;1.00
51579;DHT22;47998;53.242;6.386;2023-06-01T11:16:54;14.20;1.00
51579;DHT22;47998;53.242;6.386;2023-06-01T11:19:24;14.10;1.00
51579;DHT22;47998;53.242;6.386;2023-06-01T11:21:58;14.10;1.00
51579;DHT22;47998;53.242;6.386;2023-06-01T11:24:32;13.80;1.00
51579;DHT22;47998;53.242;6.386;2023-06-01T11:27:10;14.10;7.90
51579;DHT22;47998;53.242;6.386;2023-06-01T11:29:36;14.20;1.00
51579;DHT22;47998;53.242;6.386;2023-06-01T11:32:04;14.30;1.00
51579;DHT22;47998;53.242;6.386;2023-06-01T11:37:05;14.40;34.70
51579;DHT22;47998;53.242;6.386;2023-06-01T11:39:31;14.40;73.40
51579;DHT22;47998;53.242;6.386;2023-06-01T11:42:14;14.30;45.80
51579;DHT22;47998;53.242;6.386;2023-06-01T11:44:45;14.20;83.70
51579;DHT22;47998;53.242;6.386;2023-06-01T11:47:14;14.20;86.70
51579;DHT22;47998;53.242;6.386;2023-06-01T11:49:44;14.30;16.20
51579;DHT22;47998;53.242;6.386;2023-06-01T11:52:13;14.10;12.00
51579;DHT22;47998;53.242;6.386;2023-06-01T11:54:39;14.20;87.10
51579;DHT22;47998;53.242;6.386;2023-06-01T11:57:05;14.40;93.90
51579;DHT22;47998;53.242;6.386;2023-06-01T11:59:38;14.40;40.30
51579;DHT22;47998;53.242;6.386;2023-06-01T12:02:18;14.10;62.70
51579;DHT22;47998;53.242;6.386;2023-06-01T12:05:08;13.90;99.90
51579;DHT22;47998;53.242;6.386;2023-06-01T12:10:11;13.90;99.90
51579;DHT22;47998;53.242;6.386;2023-06-01T12:12:40;13.90;99.90
51579;DHT22;47998;53.242;6.386;2023-06-01T12:15:07;13.80;99.90
51579;DHT22;47998;53.242;6.386;2023-06-01T12:17:49;14.00;99.90
51579;DHT22;47998;53.242;6.386;2023-06-01T12:20:35;14.10;99.90
51579;DHT22;47998;53.242;6.386;2023-06-01T12:23:24;14.20;99.90
51579;DHT22;47998;53.242;6.386;2023-06-01T12:25:54;14.20;99.90
51579;DHT22;47998;53.242;6.386;2023-06-01T12:28:22;14.20;99.90
51579;DHT22;47998;53.242;6.386;2023-06-01T12:30:48;14.30;99.90
51579;DHT22;47998;53.242;6.386;2023-06-01T12:33:36;14.50;99.90
51579;DHT22;47998;53.242;6.386;2023-06-01T12:36:03;14.80;69.20
51579;DHT22;47998;53.242;6.386;2023-06-01T12:41:10;14.40;99.90
51579;DHT22;47998;53.242;6.386;2023-06-01T12:43:38;14.10;99.90
51579;DHT22;47998;53.242;6.386;2023-06-01T12:46:04;13.90;1.00
51579;DHT22;47998;53.242;6.386;2023-06-01T12:48:34;13.80;1.00
51579;DHT22;47998;53.242;6.386;2023-06-01T12:51:02;13.90;1.00
51579;DHT22;47998;53.242;6.386;2023-06-01T12:53:29;13.60;1.00
51579;DHT22;47998;53.242;6.386;2023-06-01T12:55:56;13.30;1.00
51579;DHT22;47998;53.242;6.386;2023-06-01T12:58:21;13.30;1.00
51579;DHT22;47998;53.242;6.386;2023-06-01T13:00:47;13.20;1.00
51579;DHT22;47998;53.242;6.386;2023-06-01T13:03:14;13.30;1.00
51579;DHT22;47998;53.242;6.386;2023-06-01T13:05:42;13.50;1.00
51579;DHT22;47998;53.242;6.386;2023-06-01T13:08:15;13.70;1.00
51579;DHT22;47998;53.242;6.386;2023-06-01T13:10:41;13.90;99.90
51579;DHT22;47998;53.242;6.386;2023-06-01T13:13:07;14.10;99.90
51579;DHT22;47998;53.242;6.386;2023-06-01T13:15:34;14.20;99.90
51579;DHT22;47998;53.242;6.386;2023-06-01T13:17:59;14.30;95.20
51579;DHT22;47998;53.242;6.386;2023-06-01T13:20:25;14.20;1.00
51579;DHT22;47998;53.242;6.386;2023-06-01T13:22:51;14.20;1.00
51579;DHT22;47998;53.242;6.386;2023-06-01T13:25:18;14.40;1.00
51579;DHT22;47998;53.242;6.386;2023-06-01T13:27:45;14.60;1.00
51579;DHT22;47998;53.242;6.386;2023-06-01T13:30:11;14.60;1.00
51579;DHT22;47998;53.242;6.386;2023-06-01T13:32:37;14.80;1.00
51579;DHT22;47998;53.242;6.386;2023-06-01T13:35:04;14.70;99.90
51579;DHT22;47998;53.242;6.386;2023-06-01T13:37:29;14.60;99.90
51579;DHT22;47998;53.242;6.386;2023-06-01T13:39:55;14.60;99.90
51579;DHT22;47998;53.242;6.386;2023-06-01T13:42:21;14.50;99.90
51579;DHT22;47998;53.242;6.386;2023-06-01T13:44:47;14.50;99.90
51579;DHT22;47998;53.242;6.386;2023-06-01T13:47:13;14.30;99.90
51579;DHT22;47998;53.242;6.386;2023-06-01T13:49:42;14.20;1.00
51579;DHT22;47998;53.242;6.386;2023-06-01T13:52:09;14.00;1.00
51579;DHT22;47998;53.242;6.386;2023-06-01T13:54:35;14.00;1.00
51579;DHT22;47998;53.242;6.386;2023-06-01T13:57:02;14.10;1.00
51579;DHT22;47998;53.242;6.386;2023-06-01T13:59:29;13.80;1.00
51579;DHT22;47998;53.242;6.386;2023-06-01T14:01:59;13.70;99.90
51579;DHT22;47998;53.242;6.386;2023-06-01T14:04:25;13.70;99.90
51579;DHT22;47998;53.242;6.386;2023-06-01T14:06:50;13.60;99.90
51579;DHT22;47998;53.242;6.386;2023-06-01T14:09:17;13.40;99.90
51579;DHT22;47998;53.242;6.386;2023-06-01T14:11:43;13.20;99.90
51579;DHT22;47998;53.242;6.386;2023-06-01T14:14:09;13.10;1.00
51579;DHT22;47998;53.242;6.386;2023-06-01T14:16:34;13.10;1.00
51579;DHT22;47998;53.242;6.386;2023-06-01T14:19:00;13.10;6.10
51579;DHT22;47998;53.242;6.386;2023-06-01T14:21:26;13.30;42.40
51579;DHT22;47998;53.242;6.386;2023-06-01T14:23:52;13.40;1.70
51579;DHT22;47998;53.242;6.386;2023-06-01T14:26:17;13.40;1.00
51579;DHT22;47998;53.242;6.386;2023-06-01T14:28:43;13.20;1.00
51579;DHT22;47998;53.242;6.386;2023-06-01T14:31:09;13.30;1.00
51579;DHT22;47998;53.242;6.386;2023-06-01T14:33:34;13.40;1.00
51579;DHT22;47998;53.242;6.386;2023-06-01T14:36:01;13.60;1.00
51579;DHT22;47998;53.242;6.386;2023-06-01T14:38:27;13.80;1.00
51579;DHT22;47998;53.242;6.386;2023-06-01T14:40:53;13.90;99.90
51579;DHT22;47998;53.242;6.386;2023-06-01T14:43:18;14.00;99.90
51579;DHT22;47998;53.242;6.386;2023-06-01T14:45:44;13.90;99.90
51579;DHT22;47998;53.242;6.386;2023-06-01T14:48:10;14.10;99.90
51579;DHT22;47998;53.242;6.386;2023-06-01T14:50:35;14.30;99.90
51579;DHT22;47998;53.242;6.386;2023-06-01T14:53:01;14.60;1.00
51579;DHT22;47998;53.242;6.386;2023-06-01T14:55:27;14.70;1.00
51579;DHT22;47998;53.242;6.386;2023-06-01T14:57:53;15.00;1.00
51579;DHT22;47998;53.242;6.386;2023-06-01T15:00:19;14.90;1.00
51579;DHT22;47998;53.242;6.386;2023-06-01T15:02:45;15.00;99.90
51579;DHT22;47998;53.242;6.386;2023-06-01T15:05:11;14.80;99.90
51579;DHT22;47998;53.242;6.386;2023-06-01T15:07:36;14.50;1.00
51579;DHT22;47998;53.242;6.386;2023-06-01T15:10:02;13.90;1.00
51579;DHT22;47998;53.242;6.386;2023-06-01T15:12:29;13.50;99.90
51579;DHT22;47998;53.242;6.386;2023-06-01T15:14:54;13.50;99.90
51579;DHT22;47998;53.242;6.386;2023-06-01T15:17:20;13.40;99.90
51579;DHT22;47998;53.242;6.386;2023-06-01T15:19:46;13.40;99.90
51579;DHT22;47998;53.242;6.386;2023-06-01T15:22:13;13.40;99.90
51579;DHT22;47998;53.242;6.386;2023-06-01T15:24:39;13.60;99.90
51579;DHT22;47998;53.242;6.386;2023-06-01T15:27:09;13.60;91.70
51579;DHT22;47998;53.242;6.386;2023-06-01T15:29:34;13.80;99.90
51579;DHT22;47998;53.242;6.386;2023-06-01T15:32:03;14.00;1.00
51579;DHT22;47998;53.242;6.386;2023-06-01T15:34:29;14.20;1.00
51579;DHT22;47998;53.242;6.386;2023-06-01T15:36:55;14.40;1.00
51579;DHT22;47998;53.242;6.386;2023-06-01T15:39:21;14.20;99.90
51579;DHT22;47998;53.242;6.386;2023-06-01T15:41:47;14.10;99.90
51579;DHT22;47998;53.242;6.386;2023-06-01T15:44:12;14.00;99.90
51579;DHT22;47998;53.242;6.386;2023-06-01T15:46:38;13.80;99.90
51579;DHT22;47998;53.242;6.386;2023-06-01T15:49:04;13.80;1.00
51579;DHT22;47998;53.242;6.386;2023-06-01T15:51:30;13.60;1.00
51579;DHT22;47998;53.242;6.386;2023-06-01T15:53:56;13.40;1.00
51579;DHT22;47998;53.242;6.386;2023-06-01T15:56:22;13.20;99.90
51579;DHT22;47998;53.242;6.386;2023-06-01T15:58:48;13.00;99.90
51579;DHT22;47998;53.242;6.386;2023-06-01T16:01:18;12.80;99.90
51579;DHT22;47998;53.242;6.386;2023-06-01T16:03:44;12.90;99.90
51579;DHT22;47998;53.242;6.386;2023-06-01T16:06:10;13.00;99.90
51579;DHT22;47998;53.242;6.386;2023-06-01T16:08:37;13.10;5.60
51579;DHT22;47998;53.242;6.386;2023-06-01T16:11:02;13.30;1.00